sensor_id;sensor_type;location;lat;lon;timestamp;pressure;altitude;pressure_sealevel;temperature;humidity
49040;BME280;36811;49.732;13.402;2022-10-26T00:01:05;98128.50;;;7.48;98.83
49040;BME280;36811;49.732;13.402;2022-10-26T00:03:33;98124.00;;;7.49;98.87
49040;BME280;36811;49.732;13.402;2022-10-26T00:06:26;98127.31;;;7.44;98.34
49040;BME280;36811;49.732;13.402;2022-10-26T00:08:55;98124.53;;;7.39;98.48
49040;BME280;36811;49.732;13.402;2022-10-26T00:11:20;98130.28;;;7.36;98.31
49040;BME280;36811;49.732;13.402;2022-10-26T00:13:47;98134.19;;;7.34;98.54
49040;BME280;36811;49.732;13.402;2022-10-26T00:16:23;98138.91;;;7.32;98.31
49040;BME280;36811;49.732;13.402;2022-10-26T00:18:49;98127.19;;;7.28;99.15
49040;BME280;36811;49.732;13.402;2022-10-26T00:21:15;98137.38;;;7.24;99.39
49040;BME280;36811;49.732;13.402;2022-10-26T00:23:41;98137.06;;;7.21;100.00
49040;BME280;36811;49.732;13.402;2022-10-26T00:26:08;98129.63;;;7.11;99.41
49040;BME280;36811;49.732;13.402;2022-10-26T00:28:34;98114.94;;;6.85;99.82
49040;BME280;36811;49.732;13.402;2022-10-26T00:31:02;98116.28;;;6.76;100.00
49040;BME280;36811;49.732;13.402;2022-10-26T00:33:28;98117.00;;;6.83;100.00
49040;BME280;36811;49.732;13.402;2022-10-26T00:35:54;98116.53;;;6.86;100.00
49040;BME280;36811;49.732;13.402;2022-10-26T00:38:21;98117.50;;;6.92;100.00
49040;BME280;36811;49.732;13.402;2022-10-26T00:40:47;98119.84;;;7.00;100.00
49040;BME280;36811;49.732;13.402;2022-10-26T00:43:15;98119.19;;;7.16;100.00
49040;BME280;36811;49.732;13.402;2022-10-26T00:45:42;98123.50;;;6.99;100.00
49040;BME280;36811;49.732;13.402;2022-10-26T00:48:16;98120.81;;;6.87;100.00
49040;BME280;36811;49.732;13.402;2022-10-26T00:50:45;98117.72;;;6.90;100.00
49040;BME280;36811;49.732;13.402;2022-10-26T00:53:12;98121.63;;;6.88;100.00
49040;BME280;36811;49.732;13.402;2022-10-26T00:55:42;98116.41;;;6.81;100.00
49040;BME280;36811;49.732;13.402;2022-10-26T00:58:09;98117.59;;;6.85;100.00
49040;BME280;36811;49.732;13.402;2022-10-26T01:00:36;98116.47;;;6.93;100.00
49040;BME280;36811;49.732;13.402;2022-10-26T01:03:06;98115.88;;;6.91;100.00
49040;BME280;36811;49.732;13.402;2022-10-26T01:05:34;98107.34;;;6.89;100.00
49040;BME280;36811;49.732;13.402;2022-10-26T01:08:01;98104.81;;;6.82;100.00
49040;BME280;36811;49.732;13.402;2022-10-26T01:10:28;98100.09;;;6.84;100.00
49040;BME280;36811;49.732;13.402;2022-10-26T01:12:54;98104.38;;;6.85;100.00
49040;BME280;36811;49.732;13.402;2022-10-26T01:15:27;98102.97;;;6.83;100.00
49040;BME280;36811;49.732;13.402;2022-10-26T01:18:08;98096.22;;;6.87;100.00
49040;BME280;36811;49.732;13.402;2022-10-26T01:21:03;98110.31;;;6.81;100.00
49040;BME280;36811;49.732;13.402;2022-10-26T01:24:15;98103.06;;;6.76;100.00
49040;BME280;36811;49.732;13.402;2022-10-26T01:27:46;98119.00;;;6.70;100.00
49040;BME280;36811;49.732;13.402;2022-10-26T01:33:16;98111.81;;;6.59;100.00
49040;BME280;36811;49.732;13.402;2022-10-26T01:43:39;98112.56;;;6.48;100.00
49040;BME280;36811;49.732;13.402;2022-10-26T01:46:08;98114.31;;;6.54;100.00
49040;BME280;36811;49.732;13.402;2022-10-26T01:48:36;98114.31;;;6.54;100.00
49040;BME280;36811;49.732;13.402;2022-10-26T01:51:03;98116.28;;;6.58;100.00
49040;BME280;36811;49.732;13.402;2022-10-26T01:53:30;98105.28;;;6.61;100.00
49040;BME280;36811;49.732;13.402;2022-10-26T01:55:57;98098.09;;;6.50;100.00
49040;BME280;36811;49.732;13.402;2022-10-26T02:03:44;98089.44;;;6.43;100.00
49040;BME280;36811;49.732;13.402;2022-10-26T02:06:38;98092.44;;;6.47;100.00
49040;BME280;36811;49.732;13.402;2022-10-26T02:09:43;98079.81;;;6.49;100.00
49040;BME280;36811;49.732;13.402;2022-10-26T02:14:56;98082.25;;;6.50;100.00
49040;BME280;36811;49.732;13.402;2022-10-26T02:17:59;98074.97;;;6.46;100.00
49040;BME280;36811;49.732;13.402;2022-10-26T02:20:33;98075.56;;;6.48;100.00
49040;BME280;36811;49.732;13.402;2022-10-26T02:23:03;98072.69;;;6.49;100.00
49040;BME280;36811;49.732;13.402;2022-10-26T02:25:32;98067.84;;;6.46;100.00
49040;BME280;36811;49.732;13.402;2022-10-26T02:28:06;98060.31;;;6.50;100.00
49040;BME280;36811;49.732;13.402;2022-10-26T02:30:34;98061.28;;;6.67;100.00
49040;BME280;36811;49.732;13.402;2022-10-26T02:33:02;98074.66;;;6.72;100.00
49040;BME280;36811;49.732;13.402;2022-10-26T02:35:30;98076.63;;;6.76;100.00
49040;BME280;36811;49.732;13.402;2022-10-26T02:38:00;98064.34;;;6.82;100.00
49040;BME280;36811;49.732;13.402;2022-10-26T02:40:28;98045.66;;;6.65;100.00
49040;BME280;36811;49.732;13.402;2022-10-26T02:42:57;98065.38;;;6.81;100.00
49040;BME280;36811;49.732;13.402;2022-10-26T02:45:28;98061.41;;;6.60;100.00
49040;BME280;36811;49.732;13.402;2022-10-26T02:47:56;98070.78;;;6.56;100.00
49040;BME280;36811;49.732;13.402;2022-10-26T02:50:28;98075.34;;;6.49;100.00
49040;BME280;36811;49.732;13.402;2022-10-26T02:55:39;98066.91;;;6.40;100.00
49040;BME280;36811;49.732;13.402;2022-10-26T02:58:16;98063.69;;;6.38;100.00
49040;BME280;36811;49.732;13.402;2022-10-26T03:00:44;98063.22;;;6.60;100.00
49040;BME280;36811;49.732;13.402;2022-10-26T03:03:11;98061.28;;;6.67;100.00
49040;BME280;36811;49.732;13.402;2022-10-26T03:05:41;98063.25;;;6.71;100.00
49040;BME280;36811;49.732;13.402;2022-10-26T03:08:08;98068.22;;;6.68;100.00
49040;BME280;36811;49.732;13.402;2022-10-26T03:10:39;98069.94;;;6.74;100.00
49040;BME280;36811;49.732;13.402;2022-10-26T03:13:05;98078.91;;;6.73;100.00
49040;BME280;36811;49.732;13.402;2022-10-26T03:15:30;98076.63;;;6.76;100.00
49040;BME280;36811;49.732;13.402;2022-10-26T03:17:56;98077.88;;;6.74;100.00
49040;BME280;36811;49.732;13.402;2022-10-26T03:20:22;98084.34;;;6.78;100.00
49040;BME280;36811;49.732;13.402;2022-10-26T03:22:48;98074.91;;;6.82;100.00
49040;BME280;36811;49.732;13.402;2022-10-26T03:25:14;98074.03;;;6.88;100.00
49040;BME280;36811;49.732;13.402;2022-10-26T03:27:40;98078.28;;;6.89;100.00
49040;BME280;36811;49.732;13.402;2022-10-26T03:30:06;98088.78;;;6.95;100.00
49040;BME280;36811;49.732;13.402;2022-10-26T03:32:32;98083.97;;;7.04;100.00
49040;BME280;36811;49.732;13.402;2022-10-26T03:34:58;98091.00;;;7.10;100.00
49040;BME280;36811;49.732;13.402;2022-10-26T03:37:24;98091.94;;;7.16;100.00
49040;BME280;36811;49.732;13.402;2022-10-26T03:39:50;98088.03;;;7.18;100.00
49040;BME280;36811;49.732;13.402;2022-10-26T03:42:15;98088.16;;;7.23;100.00
49040;BME280;36811;49.732;13.402;2022-10-26T03:44:41;98078.28;;;7.30;100.00
49040;BME280;36811;49.732;13.402;2022-10-26T03:47:07;98094.00;;;7.14;100.00
49040;BME280;36811;49.732;13.402;2022-10-26T03:49:32;98097.25;;;7.16;100.00
49040;BME280;36811;49.732;13.402;2022-10-26T03:51:58;98090.69;;;7.18;100.00
49040;BME280;36811;49.732;13.402;2022-10-26T03:54:23;98093.66;;;7.10;100.00
49040;BME280;36811;49.732;13.402;2022-10-26T03:56:49;98097.84;;;6.88;100.00
49040;BME280;36811;49.732;13.402;2022-10-26T03:59:17;98098.34;;;6.78;100.00
49040;BME280;36811;49.732;13.402;2022-10-26T04:01:43;98096.50;;;6.79;100.00
49040;BME280;36811;49.732;13.402;2022-10-26T04:04:09;98098.94;;;6.80;100.00
49040;BME280;36811;49.732;13.402;2022-10-26T04:06:35;98099.16;;;6.79;99.88
49040;BME280;36811;49.732;13.402;2022-10-26T04:09:00;98107.03;;;6.67;99.59
49040;BME280;36811;49.732;13.402;2022-10-26T04:11:29;98098.75;;;6.64;100.00
49040;BME280;36811;49.732;13.402;2022-10-26T04:13:56;98100.38;;;6.65;99.91
49040;BME280;36811;49.732;13.402;2022-10-26T04:16:25;98095.38;;;6.57;99.85
49040;BME280;36811;49.732;13.402;2022-10-26T04:18:51;98104.47;;;6.61;99.84
49040;BME280;36811;49.732;13.402;2022-10-26T04:21:16;98092.72;;;6.57;99.54
49040;BME280;36811;49.732;13.402;2022-10-26T04:23:42;98111.00;;;6.58;99.54
49040;BME280;36811;49.732;13.402;2022-10-26T04:26:07;98097.59;;;6.60;99.62
49040;BME280;36811;49.732;13.402;2022-10-26T04:28:33;98106.66;;;6.82;99.84
49040;BME280;36811;49.732;13.402;2022-10-26T04:30:58;98101.50;;;6.87;98.95
49040;BME280;36811;49.732;13.402;2022-10-26T04:33:24;98117.25;;;6.93;97.71
49040;BME280;36811;49.732;13.402;2022-10-26T04:35:49;98114.03;;;6.91;97.03
49040;BME280;36811;49.732;13.402;2022-10-26T04:38:15;98127.94;;;6.87;97.00
49040;BME280;36811;49.732;13.402;2022-10-26T04:40:41;98130.56;;;6.87;97.38
49040;BME280;36811;49.732;13.402;2022-10-26T04:43:06;98126.09;;;6.87;96.76
49040;BME280;36811;49.732;13.402;2022-10-26T04:45:32;98127.94;;;6.87;97.01
49040;BME280;36811;49.732;13.402;2022-10-26T04:48:03;98121.03;;;6.86;96.76
49040;BME280;36811;49.732;13.402;2022-10-26T04:50:30;98122.28;;;6.83;96.79
49040;BME280;36811;49.732;13.402;2022-10-26T04:52:55;98120.38;;;6.90;96.89
49040;BME280;36811;49.732;13.402;2022-10-26T04:55:22;98123.16;;;6.95;96.86
49040;BME280;36811;49.732;13.402;2022-10-26T04:57:47;98109.69;;;6.97;96.52
49040;BME280;36811;49.732;13.402;2022-10-26T05:00:13;98117.06;;;6.95;96.49
49040;BME280;36811;49.732;13.402;2022-10-26T05:02:38;98117.19;;;7.00;96.43
49040;BME280;36811;49.732;13.402;2022-10-26T05:05:04;98107.75;;;7.04;96.20
49040;BME280;36811;49.732;13.402;2022-10-26T05:07:30;98107.59;;;6.87;95.49
49040;BME280;36811;49.732;13.402;2022-10-26T05:09:55;98104.97;;;6.69;96.65
49040;BME280;36811;49.732;13.402;2022-10-26T05:12:21;98104.75;;;6.71;97.37
49040;BME280;36811;49.732;13.402;2022-10-26T05:14:47;98109.38;;;6.75;97.59
49040;BME280;36811;49.732;13.402;2022-10-26T05:17:12;98108.00;;;6.73;97.31
49040;BME280;36811;49.732;13.402;2022-10-26T05:19:38;98111.22;;;6.75;97.52
49040;BME280;36811;49.732;13.402;2022-10-26T05:22:04;98108.91;;;6.78;97.62
49040;BME280;36811;49.732;13.402;2022-10-26T05:24:29;98108.13;;;6.78;97.69
49040;BME280;36811;49.732;13.402;2022-10-26T05:26:55;98109.25;;;7.00;97.32
49040;BME280;36811;49.732;13.402;2022-10-26T05:29:20;98115.97;;;7.14;96.36
49040;BME280;36811;49.732;13.402;2022-10-26T05:31:46;98114.69;;;7.17;95.54
49040;BME280;36811;49.732;13.402;2022-10-26T05:34:11;98123.75;;;7.09;95.52
49040;BME280;36811;49.732;13.402;2022-10-26T05:36:37;98127.19;;;6.98;96.16
49040;BME280;36811;49.732;13.402;2022-10-26T05:39:02;98123.72;;;6.97;96.01
49040;BME280;36811;49.732;13.402;2022-10-26T05:41:28;98126.59;;;6.96;96.13
49040;BME280;36811;49.732;13.402;2022-10-26T05:43:54;98132.63;;;7.03;96.19
49040;BME280;36811;49.732;13.402;2022-10-26T05:46:19;98130.31;;;7.07;96.09
49040;BME280;36811;49.732;13.402;2022-10-26T05:48:45;98142.66;;;7.13;96.02
49040;BME280;36811;49.732;13.402;2022-10-26T05:51:10;98150.16;;;7.16;95.49
49040;BME280;36811;49.732;13.402;2022-10-26T05:53:37;98146.56;;;7.10;95.32
49040;BME280;36811;49.732;13.402;2022-10-26T05:56:20;98140.63;;;6.96;95.33
49040;BME280;36811;49.732;13.402;2022-10-26T05:58:49;98139.22;;;6.94;95.91
49040;BME280;36811;49.732;13.402;2022-10-26T06:06:45;98139.66;;;6.91;96.62
49040;BME280;36811;49.732;13.402;2022-10-26T06:09:13;98149.22;;;6.92;96.86
49040;BME280;36811;49.732;13.402;2022-10-26T06:11:39;98153.13;;;6.89;96.70
49040;BME280;36811;49.732;13.402;2022-10-26T06:14:05;98147.66;;;7.02;97.64
49040;BME280;36811;49.732;13.402;2022-10-26T06:24:55;98161.25;;;7.06;96.69
49040;BME280;36811;49.732;13.402;2022-10-26T06:30:05;98159.91;;;7.15;96.84
49040;BME280;36811;49.732;13.402;2022-10-26T06:32:32;98167.53;;;7.23;96.88
49040;BME280;36811;49.732;13.402;2022-10-26T06:37:46;98168.50;;;7.82;95.77
49040;BME280;36811;49.732;13.402;2022-10-26T06:40:15;98174.16;;;7.97;94.37
49040;BME280;36811;49.732;13.402;2022-10-26T06:42:42;98171.88;;;8.12;94.40
49040;BME280;36811;49.732;13.402;2022-10-26T06:45:15;98176.84;;;8.32;93.84
49040;BME280;36811;49.732;13.402;2022-10-26T06:48:01;98178.34;;;8.39;92.61
49040;BME280;36811;49.732;13.402;2022-10-26T06:50:36;98181.44;;;8.36;91.33
49040;BME280;36811;49.732;13.402;2022-10-26T06:53:39;98182.13;;;8.43;92.39
49040;BME280;36811;49.732;13.402;2022-10-26T06:56:10;98182.16;;;8.55;92.65
49040;BME280;36811;49.732;13.402;2022-10-26T06:58:36;98184.44;;;8.51;91.74
49040;BME280;36811;49.732;13.402;2022-10-26T07:01:04;98189.50;;;8.64;91.79
49040;BME280;36811;49.732;13.402;2022-10-26T07:03:30;98189.41;;;8.59;91.59
49040;BME280;36811;49.732;13.402;2022-10-26T07:05:56;98204.84;;;8.62;91.75
49040;BME280;36811;49.732;13.402;2022-10-26T07:08:21;98203.91;;;8.80;91.73
49040;BME280;36811;49.732;13.402;2022-10-26T07:10:47;98208.03;;;8.87;90.72
49040;BME280;36811;49.732;13.402;2022-10-26T07:13:13;98201.09;;;8.86;90.95
49040;BME280;36811;49.732;13.402;2022-10-26T07:15:39;98220.00;;;9.02;90.59
49040;BME280;36811;49.732;13.402;2022-10-26T07:18:07;98219.53;;;9.05;89.78
49040;BME280;36811;49.732;13.402;2022-10-26T07:20:38;98220.69;;;8.97;91.08
49040;BME280;36811;49.732;13.402;2022-10-26T07:23:04;98228.41;;;8.99;90.42
49040;BME280;36811;49.732;13.402;2022-10-26T07:25:36;98229.13;;;8.94;90.39
49040;BME280;36811;49.732;13.402;2022-10-26T07:28:08;98234.28;;;9.01;90.97
49040;BME280;36811;49.732;13.402;2022-10-26T07:30:38;98238.47;;;8.97;90.78
49040;BME280;36811;49.732;13.402;2022-10-26T07:33:07;98236.50;;;8.92;90.74
49040;BME280;36811;49.732;13.402;2022-10-26T07:35:33;98245.38;;;8.98;91.46
49040;BME280;36811;49.732;13.402;2022-10-26T07:37:59;98237.06;;;9.06;91.11
49040;BME280;36811;49.732;13.402;2022-10-26T07:40:26;98240.97;;;9.15;91.46
49040;BME280;36811;49.732;13.402;2022-10-26T07:42:52;98239.88;;;9.27;90.70
49040;BME280;36811;49.732;13.402;2022-10-26T07:45:20;98232.47;;;9.41;92.47
49040;BME280;36811;49.732;13.402;2022-10-26T07:47:46;98234.50;;;9.50;91.37
49040;BME280;36811;49.732;13.402;2022-10-26T07:50:11;98239.28;;;9.65;90.83
49040;BME280;36811;49.732;13.402;2022-10-26T07:52:37;98237.16;;;9.79;90.63
49040;BME280;36811;49.732;13.402;2022-10-26T07:55:09;98234.72;;;9.77;90.64
49040;BME280;36811;49.732;13.402;2022-10-26T07:57:35;98230.38;;;9.88;90.07
49040;BME280;36811;49.732;13.402;2022-10-26T08:00:03;98245.28;;;9.89;89.80
49040;BME280;36811;49.732;13.402;2022-10-26T08:02:30;98245.56;;;10.04;90.02
49040;BME280;36811;49.732;13.402;2022-10-26T08:04:55;98249.78;;;10.16;89.52
49040;BME280;36811;49.732;13.402;2022-10-26T08:07:21;98249.88;;;10.22;88.19
49040;BME280;36811;49.732;13.402;2022-10-26T08:09:47;98239.00;;;10.40;88.74
49040;BME280;36811;49.732;13.402;2022-10-26T08:12:12;98236.72;;;10.48;87.70
49040;BME280;36811;49.732;13.402;2022-10-26T08:14:41;98234.13;;;10.70;88.06
49040;BME280;36811;49.732;13.402;2022-10-26T08:17:08;98236.66;;;10.81;88.38
49040;BME280;36811;49.732;13.402;2022-10-26T08:19:34;98236.19;;;11.06;86.96
49040;BME280;36811;49.732;13.402;2022-10-26T08:22:00;98237.97;;;11.22;86.65
49040;BME280;36811;49.732;13.402;2022-10-26T08:24:26;98243.44;;;11.32;86.69
49040;BME280;36811;49.732;13.402;2022-10-26T08:26:51;98235.56;;;11.42;86.11
49040;BME280;36811;49.732;13.402;2022-10-26T08:29:17;98237.16;;;11.43;85.52
49040;BME280;36811;49.732;13.402;2022-10-26T08:31:42;98234.09;;;11.57;85.28
49040;BME280;36811;49.732;13.402;2022-10-26T08:34:09;98228.88;;;11.67;84.86
49040;BME280;36811;49.732;13.402;2022-10-26T08:36:34;98233.34;;;11.83;82.36
49040;BME280;36811;49.732;13.402;2022-10-26T08:39:00;98233.66;;;11.65;82.75
49040;BME280;36811;49.732;13.402;2022-10-26T08:41:41;98234.91;;;11.57;83.54
49040;BME280;36811;49.732;13.402;2022-10-26T08:44:20;98222.09;;;11.76;83.93
49040;BME280;36811;49.732;13.402;2022-10-26T08:47:03;98219.31;;;11.92;83.27
49040;BME280;36811;49.732;13.402;2022-10-26T08:49:41;98203.84;;;11.94;82.96
49040;BME280;36811;49.732;13.402;2022-10-26T08:52:13;98190.59;;;11.24;83.68
49040;BME280;36811;49.732;13.402;2022-10-26T08:54:46;98191.03;;;11.16;84.75
49040;BME280;36811;49.732;13.402;2022-10-26T08:57:25;98191.75;;;11.55;84.59
49040;BME280;36811;49.732;13.402;2022-10-26T08:59:58;98201.94;;;11.90;84.50
49040;BME280;36811;49.732;13.402;2022-10-26T09:02:24;98204.69;;;12.00;83.09
49040;BME280;36811;49.732;13.402;2022-10-26T09:04:52;98207.69;;;12.03;82.44
49040;BME280;36811;49.732;13.402;2022-10-26T09:07:39;98208.78;;;12.07;82.40
49040;BME280;36811;49.732;13.402;2022-10-26T09:16:26;98202.97;;;11.84;81.55
49040;BME280;36811;49.732;13.402;2022-10-26T09:22:06;98209.72;;;11.91;82.80
49040;BME280;36811;49.732;13.402;2022-10-26T09:24:37;98221.00;;;12.03;82.52
49040;BME280;36811;49.732;13.402;2022-10-26T09:29:48;98221.28;;;11.75;82.24
49040;BME280;36811;49.732;13.402;2022-10-26T09:32:30;98221.38;;;11.85;82.37
49040;BME280;36811;49.732;13.402;2022-10-26T09:35:03;98221.47;;;11.95;82.57
49040;BME280;36811;49.732;13.402;2022-10-26T09:37:35;98230.91;;;12.08;81.50
49040;BME280;36811;49.732;13.402;2022-10-26T09:42:45;98229.97;;;12.24;82.20
49040;BME280;36811;49.732;13.402;2022-10-26T09:47:49;98235.41;;;12.34;80.31
49040;BME280;36811;49.732;13.402;2022-10-26T09:50:29;98242.84;;;12.32;81.46
49040;BME280;36811;49.732;13.402;2022-10-26T09:52:57;98240.53;;;12.46;80.70
49040;BME280;36811;49.732;13.402;2022-10-26T09:55:23;98234.53;;;12.65;79.99
49040;BME280;36811;49.732;13.402;2022-10-26T09:57:54;98238.94;;;12.87;79.90
49040;BME280;36811;49.732;13.402;2022-10-26T10:00:23;98240.75;;;13.18;78.48
49040;BME280;36811;49.732;13.402;2022-10-26T10:02:51;98246.44;;;13.47;77.60
49040;BME280;36811;49.732;13.402;2022-10-26T10:07:46;98245.34;;;13.32;77.83
49040;BME280;36811;49.732;13.402;2022-10-26T10:10:20;98235.03;;;13.76;77.33
49040;BME280;36811;49.732;13.402;2022-10-26T10:12:48;98232.38;;;13.96;76.40
49040;BME280;36811;49.732;13.402;2022-10-26T10:15:23;98238.84;;;14.16;76.78
49040;BME280;36811;49.732;13.402;2022-10-26T10:17:51;98240.72;;;14.40;75.39
49040;BME280;36811;49.732;13.402;2022-10-26T10:20:21;98243.16;;;14.42;75.62
49040;BME280;36811;49.732;13.402;2022-10-26T10:22:58;98241.53;;;14.61;74.09
49040;BME280;36811;49.732;13.402;2022-10-26T10:25:42;98241.50;;;14.81;73.23
49040;BME280;36811;49.732;13.402;2022-10-26T10:28:22;98242.50;;;15.00;72.71
49040;BME280;36811;49.732;13.402;2022-10-26T10:30:56;98246.00;;;14.96;72.48
49040;BME280;36811;49.732;13.402;2022-10-26T10:33:35;98247.41;;;14.28;72.08
49040;BME280;36811;49.732;13.402;2022-10-26T10:36:05;98234.50;;;13.84;74.06
49040;BME280;36811;49.732;13.402;2022-10-26T10:38:37;98243.91;;;14.07;74.25
49040;BME280;36811;49.732;13.402;2022-10-26T10:41:04;98239.34;;;14.83;73.16
49040;BME280;36811;49.732;13.402;2022-10-26T10:43:30;98240.81;;;15.30;72.30
49040;BME280;36811;49.732;13.402;2022-10-26T10:45:57;98234.25;;;15.66;71.49
49040;BME280;36811;49.732;13.402;2022-10-26T10:48:26;98230.59;;;15.91;70.61
49040;BME280;36811;49.732;13.402;2022-10-26T10:50:56;98229.91;;;15.70;69.30
49040;BME280;36811;49.732;13.402;2022-10-26T10:53:34;98228.16;;;15.50;70.10
49040;BME280;36811;49.732;13.402;2022-10-26T10:56:39;98237.19;;;14.85;70.45
49040;BME280;36811;49.732;13.402;2022-10-26T11:07:12;98223.25;;;14.88;74.01
49040;BME280;36811;49.732;13.402;2022-10-26T11:09:42;98223.72;;;15.05;72.42
49040;BME280;36811;49.732;13.402;2022-10-26T11:15:25;98221.84;;;15.06;71.53
49040;BME280;36811;49.732;13.402;2022-10-26T11:18:15;98224.00;;;15.09;73.55
49040;BME280;36811;49.732;13.402;2022-10-26T11:20:48;98210.16;;;15.56;71.83
49040;BME280;36811;49.732;13.402;2022-10-26T11:23:21;98215.00;;;16.31;70.76
49040;BME280;36811;49.732;13.402;2022-10-26T11:26:09;98217.28;;;16.77;69.97
49040;BME280;36811;49.732;13.402;2022-10-26T11:28:58;98222.66;;;17.00;68.41
49040;BME280;36811;49.732;13.402;2022-10-26T11:31:34;98216.38;;;17.10;67.87
49040;BME280;36811;49.732;13.402;2022-10-26T11:34:14;98218.47;;;17.13;67.68
49040;BME280;36811;49.732;13.402;2022-10-26T11:36:44;98211.22;;;16.90;68.83
49040;BME280;36811;49.732;13.402;2022-10-26T11:39:21;98209.63;;;16.31;69.51
49040;BME280;36811;49.732;13.402;2022-10-26T11:42:36;98218.03;;;16.20;70.72
49040;BME280;36811;49.732;13.402;2022-10-26T11:45:14;98211.56;;;16.55;70.03
49040;BME280;36811;49.732;13.402;2022-10-26T11:48:08;98219.69;;;16.16;68.04
49040;BME280;36811;49.732;13.402;2022-10-26T11:50:42;98228.69;;;16.30;69.73
49040;BME280;36811;49.732;13.402;2022-10-26T11:53:13;98222.63;;;16.14;68.86
49040;BME280;36811;49.732;13.402;2022-10-26T11:55:41;98235.41;;;15.94;69.35
49040;BME280;36811;49.732;13.402;2022-10-26T11:58:11;98219.66;;;15.77;69.67
49040;BME280;36811;49.732;13.402;2022-10-26T12:00:49;98233.59;;;15.79;70.21
49040;BME280;36811;49.732;13.402;2022-10-26T12:03:19;98226.16;;;15.71;70.12
49040;BME280;36811;49.732;13.402;2022-10-26T12:05:51;98232.03;;;15.73;70.08
49040;BME280;36811;49.732;13.402;2022-10-26T12:08:24;98232.13;;;15.58;70.23
49040;BME280;36811;49.732;13.402;2022-10-26T12:14:03;98232.81;;;15.78;70.27
49040;BME280;36811;49.732;13.402;2022-10-26T12:17:28;98237.34;;;15.83;70.03
49040;BME280;36811;49.732;13.402;2022-10-26T12:19:46;98243.34;;;16.09;69.69
49040;BME280;36811;49.732;13.402;2022-10-26T12:22:17;98256.44;;;16.15;70.08
49040;BME280;36811;49.732;13.402;2022-10-26T12:24:45;98236.56;;;16.21;69.64
49040;BME280;36811;49.732;13.402;2022-10-26T12:37:57;98232.03;;;16.79;67.45
49040;BME280;36811;49.732;13.402;2022-10-26T12:45:43;98245.13;;;16.23;70.16
49040;BME280;36811;49.732;13.402;2022-10-26T12:48:23;98243.66;;;16.36;69.63
49040;BME280;36811;49.732;13.402;2022-10-26T12:54:11;98234.16;;;16.54;69.08
49040;BME280;36811;49.732;13.402;2022-10-26T13:00:00;98236.13;;;16.72;69.22
49040;BME280;36811;49.732;13.402;2022-10-26T13:05:29;98245.41;;;16.50;69.72
49040;BME280;36811;49.732;13.402;2022-10-26T13:08:17;98238.16;;;16.56;69.58
49040;BME280;36811;49.732;13.402;2022-10-26T13:11:02;98238.28;;;16.70;69.48
49040;BME280;36811;49.732;13.402;2022-10-26T13:13:30;98242.81;;;16.74;69.15
49040;BME280;36811;49.732;13.402;2022-10-26T13:15:59;98253.03;;;16.72;69.38
49040;BME280;36811;49.732;13.402;2022-10-26T13:18:26;98246.38;;;16.65;68.91
49040;BME280;36811;49.732;13.402;2022-10-26T13:23:32;98247.03;;;16.80;69.87
49040;BME280;36811;49.732;13.402;2022-10-26T13:26:15;98247.44;;;16.97;69.44
49040;BME280;36811;49.732;13.402;2022-10-26T13:28:48;98246.41;;;17.17;68.50
49040;BME280;36811;49.732;13.402;2022-10-26T13:34:14;98247.91;;;17.70;68.05
49040;BME280;36811;49.732;13.402;2022-10-26T13:36:46;98250.09;;;17.87;66.71
49040;BME280;36811;49.732;13.402;2022-10-26T13:39:44;98256.91;;;18.17;65.88
49040;BME280;36811;49.732;13.402;2022-10-26T13:42:19;98257.19;;;18.98;64.59
49040;BME280;36811;49.732;13.402;2022-10-26T13:45:02;98259.41;;;19.51;63.56
49040;BME280;36811;49.732;13.402;2022-10-26T13:50:48;98261.22;;;19.15;63.04
49040;BME280;36811;49.732;13.402;2022-10-26T13:53:36;98260.03;;;18.75;64.19
49040;BME280;36811;49.732;13.402;2022-10-26T13:56:12;98267.78;;;19.09;63.57
49040;BME280;36811;49.732;13.402;2022-10-26T13:59:04;98256.09;;;19.27;63.39
49040;BME280;36811;49.732;13.402;2022-10-26T14:01:30;98249.69;;;19.23;62.69
49040;BME280;36811;49.732;13.402;2022-10-26T14:03:56;98249.00;;;19.03;62.43
49040;BME280;36811;49.732;13.402;2022-10-26T14:06:32;98243.75;;;18.80;63.05
49040;BME280;36811;49.732;13.402;2022-10-26T14:09:14;98244.56;;;18.80;63.27
49040;BME280;36811;49.732;13.402;2022-10-26T14:11:48;98253.94;;;18.69;63.72
49040;BME280;36811;49.732;13.402;2022-10-26T14:14:40;98258.63;;;18.45;64.66
49040;BME280;36811;49.732;13.402;2022-10-26T14:17:13;98249.03;;;18.39;64.39
49040;BME280;36811;49.732;13.402;2022-10-26T14:19:43;98254.16;;;18.22;64.61
49040;BME280;36811;49.732;13.402;2022-10-26T14:22:22;98254.44;;;18.02;65.19
49040;BME280;36811;49.732;13.402;2022-10-26T14:24:51;98258.13;;;17.68;65.33
49040;BME280;36811;49.732;13.402;2022-10-26T14:27:21;98275.09;;;17.45;66.80
49040;BME280;36811;49.732;13.402;2022-10-26T14:29:48;98279.50;;;17.36;67.00
49040;BME280;36811;49.732;13.402;2022-10-26T14:32:21;98270.81;;;17.21;66.97
49040;BME280;36811;49.732;13.402;2022-10-26T14:34:47;98275.03;;;17.03;67.35
49040;BME280;36811;49.732;13.402;2022-10-26T14:37:44;98267.72;;;17.08;68.02
49040;BME280;36811;49.732;13.402;2022-10-26T14:40:17;98265.69;;;16.95;68.14
49040;BME280;36811;49.732;13.402;2022-10-26T14:42:49;98280.56;;;16.88;68.45
49040;BME280;36811;49.732;13.402;2022-10-26T14:45:27;98270.91;;;16.87;69.17
49040;BME280;36811;49.732;13.402;2022-10-26T14:47:56;98266.19;;;16.74;69.16
49040;BME280;36811;49.732;13.402;2022-10-26T14:50:23;98272.69;;;16.68;69.58
49040;BME280;36811;49.732;13.402;2022-10-26T14:52:58;98271.16;;;16.62;69.70
49040;BME280;36811;49.732;13.402;2022-10-26T14:55:25;98275.19;;;16.59;69.87
49040;BME280;36811;49.732;13.402;2022-10-26T14:58:04;98276.63;;;16.46;70.16
49040;BME280;36811;49.732;13.402;2022-10-26T15:00:31;98273.47;;;16.34;70.82
49040;BME280;36811;49.732;13.402;2022-10-26T15:02:57;98268.75;;;16.21;71.23